Bookmark and Share
Track history (hours):
 

Leonardo

Last reported at 2014-Apr-19 01:31 UTC. Time now 2014-Apr-19 02:01 UTC.
Position N 44°06' E 009°52'.

Length 28 m; draft 2.7 m.

MMSI: 247155800.

NotesDate/timePositionNaut miles runAvg speedWind from/ knotsBaromVisibWave heightAir tempDewpointWater temp
2014-Apr-19 01:31N 44°06' E 009°52'0 0.0
2014-Apr-19 00:31N 44°06' E 009°52'0 0.0
2014-Apr-18 23:33N 44°06' E 009°52'0 0.0
2014-Apr-18 22:33N 44°06' E 009°52'0 0.0
2014-Apr-18 21:32N 44°06' E 009°52'0 0.0
2014-Apr-18 20:32N 44°06' E 009°52'0 0.0
2014-Apr-18 19:32N 44°06' E 009°52'0 0.0
2014-Apr-18 18:31N 44°06' E 009°52'0 0.0
2014-Apr-18 17:31N 44°06' E 009°52'0 0.0
2014-Apr-18 16:33N 44°06' E 009°52'0 0.0
2014-Apr-18 15:33N 44°06' E 009°52'0 0.0
2014-Apr-18 14:32N 44°06' E 009°52'0 0.0
2014-Apr-18 13:32N 44°06' E 009°52'0 0.0
2014-Apr-18 12:31N 44°06' E 009°52'0 0.0
2014-Apr-18 11:31N 44°06' E 009°52'0 0.0
2014-Apr-18 10:31N 44°06' E 009°52'0 0.0
2014-Apr-18 09:33N 44°06' E 009°52'0 0.0
2014-Apr-18 08:33N 44°06' E 009°52'0 0.0
2014-Apr-18 07:32N 44°06' E 009°52'0 0.0
2014-Apr-18 06:32N 44°06' E 009°52'0 0.0
2014-Apr-18 05:32N 44°06' E 009°52'0 0.0
2014-Apr-18 04:31N 44°06' E 009°52'0 0.0
2014-Apr-18 03:31N 44°06' E 009°52'0 0.0
2014-Apr-18 02:33N 44°06' E 009°52'0 0.0
2014-Apr-18 01:33N 44°06' E 009°52'0 0.0
2014-Apr-18 00:32N 44°06' E 009°52'0 0.0
2014-Apr-17 23:32N 44°06' E 009°52'0 0.0
2014-Apr-17 22:31N 44°06' E 009°52'0 0.0
2014-Apr-17 21:31N 44°06' E 009°52'0 0.0
2014-Apr-17 20:31N 44°06' E 009°52'0 0.0
2014-Apr-17 19:33N 44°06' E 009°52'0 0.0
2014-Apr-17 18:33N 44°06' E 009°52'0 0.0
2014-Apr-17 17:33N 44°06' E 009°52'0 0.0
2014-Apr-17 16:32N 44°06' E 009°52'0 0.0
2014-Apr-17 15:31N 44°06' E 009°52'0 0.0
2014-Apr-17 14:31N 44°06' E 009°52'0 0.0
2014-Apr-17 13:31N 44°06' E 009°52'0 0.0
2014-Apr-17 12:33N 44°06' E 009°52'0 0.1
2014-Apr-17 11:30N 44°06' E 009°52'0 0.0
2014-Apr-17 10:32N 44°06' E 009°52'0 0.0
2014-Apr-17 09:32N 44°06' E 009°52'0 0.0
2014-Apr-17 08:31N 44°06' E 009°52'0 0.0
2014-Apr-17 07:31N 44°06' E 009°52'0 0.0
2014-Apr-17 06:30N 44°06' E 009°52'0 0.0
2014-Apr-17 05:33N 44°06' E 009°52'0 0.0
2014-Apr-17 04:33N 44°06' E 009°52'0 0.0
2014-Apr-17 03:32N 44°06' E 009°52'0 0.0
2014-Apr-17 02:32N 44°06' E 009°52'0 0.0
2014-Apr-17 01:31N 44°06' E 009°52'0 0.0
2014-Apr-17 00:31N 44°06' E 009°52'0 0.0
2014-Apr-16 23:30N 44°06' E 009°52'0 0.0
2014-Apr-16 22:33N 44°06' E 009°52'0 0.0
2014-Apr-16 21:33N 44°06' E 009°52'0 0.0
2014-Apr-16 20:32N 44°06' E 009°52'0 0.0
2014-Apr-16 19:32N 44°06' E 009°52'0 0.0
2014-Apr-16 18:28N 44°06' E 009°52'0 0.0
2014-Apr-16 17:33N 44°06' E 009°52'4 3.5
2014-Apr-16 16:33N 44°02' E 009°51'9 8.7
2014-Apr-16 15:33N 44°02' E 009°39'3 2.6
2014-Apr-16 14:33N 44°04' E 009°37'4 3.7
2014-Apr-16 13:34N 44°05' E 009°42'1 1.1
2014-Apr-16 12:33N 44°05' E 009°40'1 1.0
2014-Apr-16 11:33N 44°05' E 009°42'1 0.9
2014-Apr-16 10:33N 44°04' E 009°42'1 0.5
2014-Apr-16 09:34N 44°03' E 009°42'7 6.7
2014-Apr-16 08:33N 44°04' E 009°52'2 2.0
2014-Apr-16 07:31N 44°06' E 009°52'0 0.0
2014-Apr-16 06:31N 44°06' E 009°52'0 0.0
2014-Apr-16 05:31N 44°06' E 009°52'0 0.0
2014-Apr-16 04:33N 44°06' E 009°52'0 0.0
2014-Apr-16 03:33N 44°06' E 009°52'0 0.0
2014-Apr-16 02:32N 44°06' E 009°52'0 0.0
2014-Apr-16 01:29N 44°06' E 009°52'0 0.0
2014-Apr-16 00:31N 44°06' E 009°52'0 0.0
2014-Apr-15 23:31N 44°06' E 009°52'0 0.0
2014-Apr-15 22:33N 44°06' E 009°52'0 0.0
2014-Apr-15 21:33N 44°06' E 009°52'0 0.0
2014-Apr-15 20:34N 44°06' E 009°52'0 0.0
2014-Apr-15 19:33N 44°06' E 009°52'0 0.0
2014-Apr-15 18:34N 44°06' E 009°52'0 0.0
2014-Apr-15 17:34N 44°06' E 009°52'0 0.0
2014-Apr-15 16:34N 44°06' E 009°52'0 0.0
2014-Apr-15 15:33N 44°06' E 009°52'0 0.0
2014-Apr-15 14:33N 44°06' E 009°52'0 0.0
2014-Apr-15 12:34N 44°06' E 009°52'1 1.4
2014-Apr-15 11:34N 44°05' E 009°50'0 0.1
2014-Apr-15 10:33N 44°05' E 009°50'0 0.0
2014-Apr-15 09:33N 44°05' E 009°50'0 0.0
2014-Apr-15 08:32N 44°05' E 009°50'0 0.0
2014-Apr-15 07:32N 44°05' E 009°50'1 1.4
2014-Apr-15 06:33N 44°06' E 009°52'0 0.0
2014-Apr-15 05:32N 44°06' E 009°52'0 0.0
2014-Apr-15 03:31N 44°06' E 009°52'0 0.0
2014-Apr-15 02:31N 44°06' E 009°52'1 0.8
2014-Apr-15 01:34N 44°05' E 009°51'5 5.2
2014-Apr-15 00:34N 44°03' E 009°45'7 7.3
2014-Apr-14 23:34N 44°05' E 009°35'0 0.5
2014-Apr-14 22:34N 44°04' E 009°35'0 0.2
2014-Apr-14 21:34N 44°04' E 009°35'0 0.0
2014-Apr-14 20:34N 44°04' E 009°35'0 0.0
2014-Apr-14 19:34N 44°04' E 009°35'0 0.0
2014-Apr-14 18:34N 44°04' E 009°35'0 0.1
2014-Apr-14 17:34N 44°04' E 009°35'0 0.0
2014-Apr-14 16:34N 44°04' E 009°35'0 0.0
2014-Apr-14 15:34N 44°04' E 009°35'0 0.0
2014-Apr-14 14:34N 44°04' E 009°35'0 0.0
2014-Apr-14 13:34N 44°04' E 009°35'0 0.0
2014-Apr-14 11:33N 44°04' E 009°35'0 0.0
2014-Apr-14 10:33N 44°04' E 009°35'0 0.0
2014-Apr-14 09:34N 44°04' E 009°35'2 2.0
2014-Apr-14 08:34N 44°04' E 009°38'8 8.1
2014-Apr-14 07:34N 44°02' E 009°49'4 4.3
2014-Apr-14 06:33N 44°06' E 009°52'0 0.0
2014-Apr-14 05:33N 44°06' E 009°52'0 0.0
2014-Apr-13 22:32N 44°06' E 009°52'0 0.0
2014-Apr-13 21:32N 44°06' E 009°52'0 0.0
2014-Apr-13 20:31N 44°06' E 009°52'0 0.0
2014-Apr-13 19:31N 44°06' E 009°52'0 0.0
2014-Apr-13 18:31N 44°06' E 009°52'0 0.0
2014-Apr-13 17:33N 44°06' E 009°52'0 0.0
2014-Apr-13 16:33N 44°06' E 009°52'0 0.0
2014-Apr-13 15:32N 44°06' E 009°52'0 0.0
2014-Apr-13 14:32N 44°06' E 009°52'0 0.0
2014-Apr-13 13:31N 44°06' E 009°52'0 0.0
2014-Apr-13 12:31N 44°06' E 009°52'0 0.0
2014-Apr-13 11:33N 44°06' E 009°52'0 0.0
2014-Apr-13 10:33N 44°06' E 009°52'0 0.0
2014-Apr-13 09:20N 44°06' E 009°52'0 0.0
2014-Apr-13 08:32N 44°06' E 009°52'0 0.0
2014-Apr-13 07:32N 44°06' E 009°52'0 0.0
2014-Apr-13 06:31N 44°06' E 009°52'0 0.0
2014-Apr-13 05:31N 44°06' E 009°52'0 0.0
2014-Apr-13 04:33N 44°06' E 009°52'0 0.0
2014-Apr-13 03:33N 44°06' E 009°52'0 0.0
2014-Apr-13 02:30N 44°06' E 009°52'0 0.0
2014-Apr-13 01:32N 44°06' E 009°52'0 0.0
2014-Apr-13 00:32N 44°06' E 009°52'0 0.0
2014-Apr-12 23:31N 44°06' E 009°52'0 0.0
2014-Apr-12 22:31N 44°06' E 009°52'0 0.0
2014-Apr-12 21:33N 44°06' E 009°52'0 0.0
2014-Apr-12 20:34N 44°06' E 009°52'0 0.0
2014-Apr-12 19:33N 44°06' E 009°52'0 0.0
2014-Apr-12 18:33N 44°06' E 009°52'0 0.0
2014-Apr-12 17:33N 44°06' E 009°52'0 0.0
2014-Apr-12 16:33N 44°06' E 009°52'0 0.0
2014-Apr-12 15:33N 44°06' E 009°52'0 0.0
2014-Apr-12 14:34N 44°06' E 009°52'0 0.0
2014-Apr-12 13:33N 44°06' E 009°52'2 1.6
2014-Apr-12 12:31N 44°05' E 009°50'0 0.0
2014-Apr-12 11:33N 44°05' E 009°50'0 0.0
2014-Apr-12 10:33N 44°05' E 009°50'0 0.0
2014-Apr-12 09:32N 44°05' E 009°50'0 0.0
2014-Apr-12 08:32N 44°05' E 009°50'0 0.0
2014-Apr-12 07:19N 44°05' E 009°50'1 1.9
2014-Apr-12 06:33N 44°06' E 009°52'0 0.1
2014-Apr-12 05:33N 44°06' E 009°52'0 0.0
2014-Apr-12 04:32N 44°06' E 009°52'0 0.0
2014-Apr-12 03:32N 44°06' E 009°52'0 0.0
2014-Apr-12 02:31N 44°06' E 009°52'0 0.0
2014-Apr-12 01:31N 44°06' E 009°52'0 0.0
2014-Apr-12 00:28N 44°06' E 009°52'0 0.0
2014-Apr-11 23:33N 44°06' E 009°52'0 0.0
2014-Apr-11 22:33N 44°06' E 009°52'0 0.0
2014-Apr-11 21:32N 44°06' E 009°52'0 0.0
2014-Apr-11 20:32N 44°06' E 009°52'0 0.0
2014-Apr-11 19:31N 44°06' E 009°52'0 0.0
2014-Apr-11 18:31N 44°06' E 009°52'0 0.0
2014-Apr-11 17:31N 44°06' E 009°52'0 0.0
2014-Apr-11 16:33N 44°06' E 009°52'0 0.0
2014-Apr-11 15:33N 44°06' E 009°52'0 0.0
2014-Apr-11 14:32N 44°06' E 009°52'0 0.0
2014-Apr-11 13:29N 44°06' E 009°52'0 0.0
2014-Apr-11 12:31N 44°06' E 009°52'1 0.6
2014-Apr-11 11:34N 44°05' E 009°51'6 5.9
2014-Apr-11 10:33N 44°02' E 009°58'2 2.1
2014-Apr-11 09:34N 44°03' E 009°55'2 1.6
2014-Apr-11 08:34N 44°04' E 009°54'3 3.1
2014-Apr-11 07:33N 44°02' E 009°57'3 2.8
2014-Apr-11 06:33N 44°03' E 009°54'3 2.9
2014-Apr-11 05:32N 44°06' E 009°52'0 0.0
2014-Apr-11 04:31N 44°06' E 009°52'0 0.0
2014-Apr-11 03:31N 44°06' E 009°52'0 0.0
2014-Apr-11 02:33N 44°06' E 009°52'0 0.0
2014-Apr-11 01:33N 44°06' E 009°52'0 0.0
2014-Apr-11 00:29N 44°06' E 009°52'0 0.0
2014-Apr-10 23:32N 44°06' E 009°52'0 0.0
2014-Apr-10 22:32N 44°06' E 009°52'0 0.0
2014-Apr-10 21:31N 44°06' E 009°52'0 0.0
2014-Apr-10 20:31N 44°06' E 009°52'0 0.0
2014-Apr-10 19:33N 44°06' E 009°52'0 0.0
2014-Apr-10 18:33N 44°06' E 009°52'0 0.0
2014-Apr-10 17:32N 44°06' E 009°52'0 0.0
2014-Apr-10 16:32N 44°06' E 009°52'0 0.0
2014-Apr-10 15:34N 44°06' E 009°52'2 2.0
2014-Apr-10 14:34N 44°04' E 009°54'2 2.0
2014-Apr-10 13:34N 44°03' E 009°56'2 2.0
2014-Apr-10 12:34N 44°02' E 009°58'3 2.6
2014-Apr-10 11:34N 44°03' E 009°55'1 1.3
2014-Apr-10 10:33N 44°04' E 009°54'0 0.1
2014-Apr-10 09:34N 44°04' E 009°54'3 3.0
2014-Apr-10 08:34N 44°02' E 009°57'1 0.8
2014-Apr-10 07:33N 44°02' E 009°56'4 4.5
2014-Apr-10 06:34N 44°06' E 009°52'0 0.0
2014-Apr-10 05:33N 44°06' E 009°52'0 0.0
2014-Apr-10 04:32N 44°06' E 009°52'0 0.0
2014-Apr-10 03:32N 44°06' E 009°52'0 0.0
2014-Apr-10 02:31N 44°06' E 009°52'0 0.0
2014-Apr-10 01:31N 44°06' E 009°52'0 0.0
2014-Apr-10 00:33N 44°06' E 009°52'0 0.0
2014-Apr-09 23:33N 44°06' E 009°52'0 0.0
2014-Apr-09 22:33N 44°06' E 009°52'0 0.0
2014-Apr-09 21:32N 44°06' E 009°52'0 0.0
2014-Apr-09 20:32N 44°06' E 009°52'0 0.0
2014-Apr-09 19:31N 44°06' E 009°52'0 0.0
2014-Apr-09 18:31N 44°06' E 009°52'0 0.0
2014-Apr-09 17:33N 44°06' E 009°52'0 0.0
2014-Apr-09 16:33N 44°06' E 009°52'0 0.0
2014-Apr-09 15:32N 44°06' E 009°52'0 0.0
2014-Apr-09 14:33N 44°06' E 009°52'2 2.1
2014-Apr-09 13:33N 44°04' E 009°54'0 0.2
2014-Apr-09 12:34N 44°04' E 009°54'0 0.5
2014-Apr-09 11:33N 44°04' E 009°54'0 0.2
2014-Apr-09 10:33N 44°04' E 009°54'0 0.0
2014-Apr-09 09:33N 44°04' E 009°54'0 0.0
2014-Apr-09 08:33N 44°04' E 009°54'0 0.5
2014-Apr-09 07:33N 44°04' E 009°54'2 2.4
2014-Apr-09 06:31N 44°06' E 009°52'0 0.0
2014-Apr-09 05:31N 44°06' E 009°52'0 0.0
2014-Apr-09 04:33N 44°06' E 009°52'0 0.0
2014-Apr-09 03:33N 44°06' E 009°52'0 0.0
2014-Apr-09 02:32N 44°06' E 009°52'0 0.0
2014-Apr-09 01:32N 44°06' E 009°52'  

Dump ship's entire track history

sailing weather and tide predictions

Leonardo — IAZA — position and weather